KFZG

Fitzgerald Municipal Airport

Fitzgerald, Georgia, USA
METAR KFZG 182135Z AUTO 35003KT 10SM VCTS CLR 26/23 A3005 RMK AO2 LTG DSNT NE S AND SW T02560231
Observed Flight Rules
Aug-18 @ 21:35 UTC (20 minutes ago) Visual Flight Rules
Wind Visibility Clouds Conditions
350° at 3 knots 10 miles
  • Clear skies
  • Area Thunderstorm
Temperatures Readings
Current 26°C / 79°F
Dewpoint 23°C / 73°F
Humidity 84%
Altimeter 30.05" Hg
Pressure 1018 hPa
Elevation 111
METAR KFZG 182135Z AUTO 35003KT 10SM VCTS CLR 26/23 A3005 RMK AO2 LTG DSNT NE S AND SW T02560231
Observed Flight Rules
Aug-18 @ 21:35 UTC
(20 minutes ago)
VFR
Wind Visibility
350° at 3 knots 10 miles
Clouds
  • Clear skies
Conditions
  • Area Thunderstorm
Temperature Dewpoint
26°C / 79°F 23°C / 73°F
Humidity Altimeter Pressure
84% 30.05" Hg 1018 hPa